Iretama, Brazil
Current Conditions -  °F | °C
As of 11:00 PM on Saturday 20 Dec 2014 (Local Time) from SBMG Reporting Station
Scattered Clouds Scattered Clouds  
Wind Chill: 81°   Ceiling: Unl
Heat Index: 85°   Visibility: 6mi
Dew Point: 72°   Wind: 14mph
Humidity: 74%   Direction: 350°N
Pressure: 29.77"   Gusts: NA
Location:  24.42°S, 52.1°W
Report Text: SBMG 210100Z 35012KT 9999 SCT045 27/22 Q1008
Loading
Personal Weather Stations






























Interactive Weather Map New forecast layout! Learn more

10-Day Weather Forecast

Advertisements
Track Severe Weather on mobile